Addis, Louisiana
Current Conditions -  °F | °C
As of 5:53 AM on Sunday 21 Dec 2014 (Local Time) from KBTR Reporting Station
Overcast Overcast  
Wind Chill:   Ceiling: 1200
Heat Index:   Visibility: 10mi
Dew Point:   Wind: 3mph
Humidity: 86%   Direction: 20°NNE
Pressure: 30.12"   Gusts: NA
Location:  30.35°N, 91.27°W
Report Text: KBTR 211153Z 02003KT 10SM OVC012 09/07 A3012 RMK AO2 SLP197 T00890067 10089 20061 56006
Loading
Personal Weather Stations






























Interactive Weather Map New forecast layout! Learn more

10-Day Weather Forecast

Advertisements
Track Severe Weather on mobile